Terminal Aerodrome Forecast
Issued by NWS

Home | Current Version | Previous Version | Text Only | Print | Product List | Glossary On
Versions: 1 2 3 4 5 6 7 8 9 10 11 12
518
FTUS42 TJSJ 300527
TAFNCM
TAF
TNCM 300527Z 3006/3106 08013KT P6SM VCSH SCT020
     FM301300 08015KT P6SM VCSH SCT020
     FM301600 07015G28KT P6SM VCTS SCT024CB BKN040=

USA.gov is the U.S. government's official web portal to all federal, state and local government web resources and services.